EmailTwitter


Observations de surface / États-Unis / KJFK (74486)

Régions: Québec | Canada | États-Unis | Europe | France | UK | Ailleurs
Station
Affichage
Infos & localisation pour KJFK (74486) | Aide pour décoder les METARs

Observations prises le 2017-08-23 à 16H51 UTC à NEW YORK/JF KENN, NY (KJFK)

Etat du ciel: partiellement nuageux.

Température: 28.0 Celsius

Point de rosée: 13.0 Celsius

Humidité relative: 40%

Indice Humidex: 31.

Vents: Nord-ouest à 20 km/h ou 11 noeuds.

Pression au niveau moyen de la mer: 101.05 kilopascals.

Calage altimétrique: 101.05 kilopascals ou 29.84 pouces de mercure.

Visibilité horizontale: 10.00 milles terrestres ou 16.00 kilomètres.

Hauteur du plafond: 8230 mètres ( 27000 pieds ).

Observation METAR:

KJFK 231651Z 31011KT 10SM FEW120 BKN270 28/13 A2984 RMK AO2 SLP105 T02780133=